createdAt,value
2018-04-08T00:00:09.463Z,16.90
2018-04-08T00:02:41.464Z,16.90
2018-04-08T00:05:14.045Z,16.80
2018-04-08T00:07:44.784Z,16.80
2018-04-08T00:10:23.403Z,16.80
2018-04-08T00:12:55.163Z,16.80
2018-04-08T00:15:26.404Z,16.80
2018-04-08T00:17:58.044Z,16.80
2018-04-08T00:20:29.463Z,16.80
2018-04-08T00:23:03.462Z,16.80
2018-04-08T00:25:37.483Z,16.80
2018-04-08T00:28:10.463Z,16.80
2018-04-08T00:30:41.765Z,16.80
2018-04-08T00:33:19.463Z,16.80
2018-04-08T00:35:51.922Z,16.80
2018-04-08T00:38:28.903Z,16.80
2018-04-08T00:40:59.850Z,16.80
2018-04-08T00:43:30.483Z,16.80
2018-04-08T00:46:02.744Z,16.80
2018-04-08T00:48:37.363Z,16.80
2018-04-08T00:51:09.243Z,16.80
2018-04-08T00:53:41.102Z,16.80
2018-04-08T00:56:17.664Z,16.80
2018-04-08T00:58:51.983Z,16.80
2018-04-08T01:01:23.463Z,16.80
2018-04-08T01:03:57.844Z,16.70
2018-04-08T01:06:29.303Z,16.70
2018-04-08T01:09:01.503Z,16.70
2018-04-08T01:11:38.483Z,16.70
2018-04-08T01:14:12.862Z,16.70
2018-04-08T01:16:44.303Z,16.70
2018-04-08T01:19:21.482Z,16.70
2018-04-08T01:21:55.303Z,16.70
2018-04-08T01:24:28.083Z,16.70
2018-04-08T01:26:58.703Z,16.60
2018-04-08T01:29:31.583Z,16.60
2018-04-08T01:32:06.943Z,16.60
2018-04-08T01:34:38.603Z,16.60
2018-04-08T01:37:10.863Z,16.60
2018-04-08T01:39:41.804Z,16.60
2018-04-08T01:42:13.524Z,16.60
2018-04-08T01:44:45.924Z,16.60
2018-04-08T01:47:16.864Z,16.60
2018-04-08T01:49:50.364Z,16.60
2018-04-08T01:52:22.424Z,16.60
2018-04-08T01:54:54.485Z,16.70
2018-04-08T01:57:29.024Z,16.70
2018-04-08T02:00:00.764Z,16.60
2018-04-08T02:02:40.004Z,16.70
2018-04-08T02:05:15.344Z,16.70
2018-04-08T02:07:47.924Z,16.60
2018-04-08T02:10:18.444Z,16.60
2018-04-08T02:12:48.984Z,16.60
2018-04-08T02:15:19.704Z,16.60
2018-04-08T02:17:50.144Z,16.60
2018-04-08T02:20:22.105Z,16.60
2018-04-08T02:22:53.144Z,16.50
2018-04-08T02:25:24.704Z,16.50
2018-04-08T02:27:56.244Z,16.40
2018-04-08T02:30:26.884Z,16.40
2018-04-08T02:33:03.047Z,16.20
2018-04-08T02:35:35.423Z,16.00
2018-04-08T02:38:10.244Z,15.90
2018-04-08T02:40:42.605Z,15.80
2018-04-08T02:43:12.424Z,15.80
2018-04-08T02:45:44.185Z,15.70
2018-04-08T02:48:16.244Z,15.50
2018-04-08T02:50:47.185Z,15.50
2018-04-08T02:53:18.025Z,15.40
2018-04-08T02:55:48.964Z,15.40
2018-04-08T02:58:25.304Z,15.30
2018-04-08T03:01:03.504Z,15.30
2018-04-08T03:03:34.775Z,15.20
2018-04-08T03:06:08.885Z,15.10
2018-04-08T03:08:42.985Z,15.00
2018-04-08T03:11:13.944Z,15.00
2018-04-08T03:13:46.103Z,14.90
2018-04-08T03:16:21.504Z,14.90
2018-04-08T03:18:54.227Z,14.90
2018-04-08T03:21:28.024Z,15.00
2018-04-08T03:23:58.364Z,15.00
2018-04-08T03:26:35.504Z,14.90
2018-04-08T03:29:07.804Z,14.90
2018-04-08T03:31:39.165Z,14.80
2018-04-08T03:34:10.574Z,14.80
2018-04-08T03:36:43.484Z,14.70
2018-04-08T03:39:15.964Z,14.70
2018-04-08T03:41:47.005Z,14.60
2018-04-08T03:44:19.884Z,14.50
2018-04-08T03:46:51.024Z,14.40
2018-04-08T03:49:22.984Z,14.40
2018-04-08T03:51:54.124Z,14.10
2018-04-08T03:54:30.505Z,14.10
2018-04-08T03:57:05.024Z,14.00
2018-04-08T03:59:38.624Z,14.00
2018-04-08T04:02:11.204Z,13.90
2018-04-08T04:04:42.524Z,13.90
2018-04-08T04:07:14.404Z,13.90
2018-04-08T04:09:46.151Z,13.90
2018-04-08T04:12:17.404Z,13.80
2018-04-08T04:14:49.484Z,13.80
2018-04-08T04:17:21.844Z,13.80
2018-04-08T04:20:05.884Z,13.70
2018-04-08T04:22:49.424Z,13.70
2018-04-08T04:28:43.225Z,13.50
2018-04-08T04:31:14.244Z,13.40
2018-04-08T04:33:46.824Z,13.40
2018-04-08T04:36:17.044Z,13.40
2018-04-08T04:38:47.564Z,13.40
2018-04-08T04:41:18.204Z,13.40
2018-04-08T04:43:48.844Z,13.50
2018-04-08T04:46:20.546Z,13.50
2018-04-08T04:48:52.864Z,13.30
2018-04-08T04:51:23.904Z,13.30
2018-04-08T04:53:57.104Z,13.30
2018-04-08T04:56:28.524Z,13.30
2018-04-08T04:59:00.404Z,13.30
2018-04-08T05:01:31.524Z,13.30
2018-04-08T05:04:08.624Z,13.30
2018-04-08T05:06:40.507Z,13.30
2018-04-08T05:09:11.233Z,13.20
2018-04-08T05:11:41.544Z,13.20
2018-04-08T05:14:13.584Z,13.10
2018-04-08T05:16:46.805Z,13.10
2018-04-08T05:19:22.344Z,13.00
2018-04-08T05:21:54.204Z,13.00
2018-04-08T05:24:25.044Z,13.00
2018-04-08T05:27:01.544Z,13.00
2018-04-08T05:29:38.544Z,13.00
2018-04-08T05:32:09.224Z,13.00
2018-04-08T05:34:40.884Z,13.00
2018-04-08T05:37:11.824Z,12.90
2018-04-08T05:39:43.984Z,13.00
2018-04-08T05:42:16.525Z,12.90
2018-04-08T05:44:47.391Z,12.90
2018-04-08T05:47:19.464Z,12.90
2018-04-08T05:49:50.404Z,12.90
2018-04-08T05:52:21.524Z,12.80
2018-04-08T05:54:53.404Z,12.70
2018-04-08T05:57:23.924Z,12.70
2018-04-08T05:59:54.864Z,12.70
2018-04-08T06:02:27.044Z,12.80
2018-04-08T06:04:58.531Z,12.90
2018-04-08T06:07:30.044Z,13.00
2018-04-08T06:10:00.990Z,13.00
2018-04-08T06:12:34.524Z,12.90
2018-04-08T06:15:05.587Z,12.80
2018-04-08T06:17:39.272Z,12.80
2018-04-08T06:20:10.864Z,12.80
2018-04-08T06:22:41.804Z,12.90
2018-04-08T06:25:17.144Z,13.00
2018-04-08T06:27:49.204Z,13.10
2018-04-08T06:30:22.544Z,13.00
2018-04-08T06:32:55.084Z,13.00
2018-04-08T06:35:30.544Z,13.10
2018-04-08T06:38:01.048Z,13.30
2018-04-08T06:40:33.124Z,13.50
2018-04-08T06:43:05.184Z,13.70
2018-04-08T06:45:36.584Z,13.80
2018-04-08T06:48:08.084Z,13.80
2018-04-08T06:50:40.144Z,13.90
2018-04-08T06:53:12.224Z,13.90
2018-04-08T06:55:44.886Z,13.80
2018-04-08T06:58:16.643Z,13.80
2018-04-08T07:00:47.184Z,13.80
2018-04-08T07:03:18.224Z,13.80
2018-04-08T07:05:54.063Z,13.90
2018-04-08T07:08:25.724Z,13.90
2018-04-08T07:10:59.945Z,14.10
2018-04-08T07:13:31.904Z,14.20
2018-04-08T07:16:04.164Z,14.30
2018-04-08T07:18:37.096Z,14.20
2018-04-08T07:21:08.564Z,14.30
2018-04-08T07:23:39.844Z,14.40
2018-04-08T07:26:11.404Z,14.40
2018-04-08T07:28:42.026Z,14.40
2018-04-08T07:31:14.808Z,14.30
2018-04-08T07:33:46.263Z,14.30
2018-04-08T07:36:16.564Z,14.30
2018-04-08T07:38:47.524Z,14.40
2018-04-08T07:41:20.923Z,14.30
2018-04-08T07:43:51.644Z,14.20
2018-04-08T07:46:26.904Z,14.30
2018-04-08T07:49:00.104Z,14.40
2018-04-08T07:51:35.424Z,14.50
2018-04-08T07:54:07.803Z,14.50
2018-04-08T07:56:44.061Z,14.60
2018-04-08T07:59:19.796Z,14.50
2018-04-08T08:01:55.668Z,14.50
2018-04-08T08:04:27.010Z,14.50
2018-04-08T08:07:04.310Z,14.60
2018-04-08T08:09:35.850Z,14.60
2018-04-08T08:12:11.389Z,14.70
2018-04-08T08:14:43.570Z,14.60
2018-04-08T08:17:14.409Z,14.60
2018-04-08T08:19:45.609Z,14.70
2018-04-08T08:22:16.169Z,14.80
2018-04-08T08:24:49.448Z,14.80
2018-04-08T08:27:20.509Z,14.80
2018-04-08T08:29:51.351Z,14.60
2018-04-08T08:32:27.570Z,14.50
2018-04-08T08:34:59.150Z,14.50
2018-04-08T08:37:31.229Z,14.60
2018-04-08T08:40:01.749Z,14.70
2018-04-08T08:42:38.210Z,14.80
2018-04-08T08:45:10.693Z,14.80
2018-04-08T08:47:49.408Z,14.80
2018-04-08T08:50:21.669Z,14.80
2018-04-08T08:52:58.589Z,14.70
2018-04-08T08:55:34.713Z,14.70
2018-04-08T08:58:05.350Z,14.70
2018-04-08T09:00:35.969Z,14.80
2018-04-08T09:03:08.028Z,14.90
2018-04-08T09:05:38.869Z,15.00
2018-04-08T09:08:13.509Z,14.90
2018-04-08T09:10:45.989Z,14.90
2018-04-08T09:13:17.128Z,15.10
2018-04-08T09:15:47.749Z,15.30
2018-04-08T09:18:23.513Z,15.20
2018-04-08T09:21:16.049Z,15.30
2018-04-08T09:23:53.233Z,15.40
2018-04-08T09:26:26.229Z,15.40
2018-04-08T09:28:57.049Z,15.50
2018-04-08T09:31:29.589Z,15.50
2018-04-08T09:34:03.129Z,15.40
2018-04-08T09:36:35.389Z,15.50
2018-04-08T09:39:08.069Z,15.70
2018-04-08T09:41:39.109Z,15.90
2018-04-08T09:44:15.989Z,16.00
2018-04-08T09:46:48.049Z,16.00
2018-04-08T09:49:18.889Z,16.10
2018-04-08T09:51:59.571Z,16.00
2018-04-08T09:54:32.128Z,15.90
2018-04-08T09:57:03.269Z,16.10
2018-04-08T09:59:38.310Z,16.30
2018-04-08T10:02:15.289Z,16.40
2018-04-08T10:04:48.689Z,16.40
2018-04-08T10:07:21.049Z,16.50
2018-04-08T10:09:51.889Z,16.60
2018-04-08T10:12:22.572Z,16.70
2018-04-08T10:14:54.893Z,16.60
2018-04-08T10:17:29.312Z,16.80
2018-04-08T10:20:02.809Z,16.80
2018-04-08T10:22:33.590Z,16.80
2018-04-08T10:25:04.689Z,17.00
2018-04-08T10:27:36.590Z,17.20
2018-04-08T10:30:07.689Z,17.50
2018-04-08T10:32:40.629Z,17.80
2018-04-08T10:35:11.591Z,18.00
2018-04-08T10:37:46.031Z,18.00
2018-04-08T10:40:21.069Z,17.90
2018-04-08T10:42:54.869Z,18.00
2018-04-08T10:45:26.429Z,18.00
2018-04-08T10:48:01.795Z,18.10
2018-04-08T10:50:33.510Z,18.30
2018-04-08T10:53:05.691Z,18.30
2018-04-08T10:55:37.049Z,18.80
2018-04-08T10:58:08.316Z,18.70
2018-04-08T11:00:38.830Z,18.70
2018-04-08T11:03:11.290Z,19.00
2018-04-08T11:05:43.151Z,19.10
2018-04-08T11:08:15.109Z,19.10
2018-04-08T11:10:46.970Z,19.10
2018-04-08T11:13:18.230Z,19.10
2018-04-08T11:15:50.790Z,19.20
2018-04-08T11:18:23.069Z,19.20
2018-04-08T11:20:58.709Z,19.20
2018-04-08T11:23:32.829Z,19.40
2018-04-08T11:26:04.570Z,19.60
2018-04-08T11:28:35.710Z,19.60
2018-04-08T11:31:06.349Z,20.30
2018-04-08T11:33:38.590Z,20.60
2018-04-08T11:36:12.610Z,20.50
2018-04-08T11:38:45.529Z,20.60
2018-04-08T11:41:22.592Z,20.70
2018-04-08T11:43:57.231Z,20.80
2018-04-08T11:46:30.909Z,20.90
2018-04-08T11:49:03.100Z,21.00
2018-04-08T11:51:34.850Z,21.20
2018-04-08T11:54:06.090Z,21.20
2018-04-08T11:56:38.969Z,21.10
2018-04-08T11:59:10.731Z,21.10
2018-04-08T12:01:44.590Z,21.30
2018-04-08T12:04:16.711Z,21.30
2018-04-08T12:06:49.990Z,21.70
2018-04-08T12:09:22.993Z,22.00
2018-04-08T12:11:54.850Z,22.20
2018-04-08T12:14:26.090Z,22.50
2018-04-08T12:16:56.929Z,22.70
2018-04-08T12:19:28.630Z,23.00
2018-04-08T12:21:59.709Z,23.30
2018-04-08T12:24:31.369Z,23.20
2018-04-08T12:27:03.609Z,23.60
2018-04-08T12:29:41.430Z,23.60
2018-04-08T12:32:14.729Z,23.70
2018-04-08T12:34:45.471Z,23.70
2018-04-08T12:37:22.853Z,24.40
2018-04-08T12:39:55.130Z,24.60
2018-04-08T12:42:26.370Z,25.00
2018-04-08T12:44:58.134Z,25.20
2018-04-08T12:47:30.191Z,25.50
2018-04-08T12:50:02.258Z,25.50
2018-04-08T12:52:33.289Z,25.90
2018-04-08T12:55:05.374Z,26.10
2018-04-08T12:57:38.773Z,26.30
2018-04-08T13:00:10.309Z,26.50
2018-04-08T13:02:44.309Z,26.90
2018-04-08T13:05:18.530Z,27.20
2018-04-08T13:07:48.370Z,27.20
2018-04-08T13:10:19.069Z,27.40
2018-04-08T13:12:51.250Z,27.80
2018-04-08T13:15:23.189Z,28.20
2018-04-08T13:17:55.669Z,28.20
2018-04-08T13:20:27.609Z,28.20
2018-04-08T13:22:59.910Z,28.50
2018-04-08T13:25:31.631Z,28.50
2018-04-08T13:28:04.750Z,28.80
2018-04-08T13:30:35.649Z,28.30
2018-04-08T13:33:08.570Z,28.40
2018-04-08T13:35:39.929Z,28.40
2018-04-08T13:38:12.215Z,28.70
2018-04-08T13:40:43.250Z,28.70
2018-04-08T13:43:15.209Z,28.70
2018-04-08T13:45:46.549Z,28.70
2018-04-08T13:48:18.457Z,28.60
2018-04-08T13:50:49.150Z,28.60
2018-04-08T13:53:21.010Z,28.40
2018-04-08T13:55:55.203Z,28.10
2018-04-08T13:58:27.384Z,27.70
2018-04-08T14:00:59.443Z,27.50
2018-04-08T14:03:31.003Z,27.20
2018-04-08T14:06:02.148Z,26.90
2018-04-08T14:08:33.906Z,26.80
2018-04-08T14:11:06.263Z,26.70
2018-04-08T14:13:37.103Z,26.50
2018-04-08T14:16:08.143Z,26.30
2018-04-08T14:18:42.623Z,26.10
2018-04-08T14:21:16.643Z,26.10
2018-04-08T14:23:48.124Z,25.70
2018-04-08T14:26:20.083Z,25.70
2018-04-08T14:28:50.503Z,25.70
2018-04-08T14:31:23.903Z,25.40
2018-04-08T14:33:56.383Z,25.30
2018-04-08T14:36:27.723Z,25.30
2018-04-08T14:39:03.783Z,25.30
2018-04-08T14:41:37.182Z,25.30
2018-04-08T14:44:08.323Z,25.00
2018-04-08T14:46:40.518Z,25.20
2018-04-08T14:49:12.763Z,25.20
2018-04-08T14:51:44.123Z,25.10
2018-04-08T14:54:15.465Z,25.10
2018-04-08T14:56:50.183Z,25.00
2018-04-08T14:59:21.656Z,24.90
2018-04-08T15:01:52.466Z,24.90
2018-04-08T15:04:24.643Z,24.90
2018-04-08T15:06:55.652Z,24.80
2018-04-08T15:09:27.746Z,24.80
2018-04-08T15:11:59.503Z,24.70
2018-04-08T15:14:33.004Z,24.60
2018-04-08T15:17:04.763Z,24.60
2018-04-08T15:19:37.643Z,24.60
2018-04-08T15:22:08.624Z,24.60
2018-04-08T15:24:41.764Z,24.50
2018-04-08T15:27:13.424Z,24.40
2018-04-08T15:29:49.670Z,24.40
2018-04-08T15:32:25.644Z,24.30
2018-04-08T15:34:57.804Z,24.30
2018-04-08T15:37:30.883Z,24.10
2018-04-08T15:40:05.403Z,24.00
2018-04-08T15:42:42.504Z,24.00
2018-04-08T15:45:13.344Z,24.00
2018-04-08T15:47:44.483Z,23.80
2018-04-08T15:50:16.243Z,23.70
2018-04-08T15:52:48.404Z,23.70
2018-04-08T15:55:20.164Z,23.70
2018-04-08T15:57:51.643Z,23.70
2018-04-08T16:00:24.803Z,23.50
2018-04-08T16:02:56.243Z,23.50
2018-04-08T16:05:28.324Z,23.50
2018-04-08T16:08:05.183Z,23.40
2018-04-08T16:10:36.024Z,23.40
2018-04-08T16:13:07.887Z,23.30
2018-04-08T16:15:38.683Z,23.30
2018-04-08T16:18:12.945Z,23.30
2018-04-08T16:20:46.325Z,23.20
2018-04-08T16:23:20.046Z,23.20
2018-04-08T16:25:55.645Z,23.20
2018-04-08T16:28:26.683Z,23.10
2018-04-08T16:30:57.342Z,23.00
2018-04-08T16:33:29.104Z,23.00
2018-04-08T16:36:01.803Z,22.90
2018-04-08T16:38:34.063Z,22.90
2018-04-08T16:41:05.530Z,22.90
2018-04-08T16:43:36.563Z,22.90
2018-04-08T16:46:08.623Z,22.80
2018-04-08T16:48:40.884Z,22.80
2018-04-08T16:51:11.689Z,22.80
2018-04-08T16:53:43.784Z,22.60
2018-04-08T16:56:14.523Z,22.60
2018-04-08T16:58:45.344Z,22.60
2018-04-08T17:01:22.664Z,22.60
2018-04-08T17:03:57.783Z,22.50
2018-04-08T17:06:30.863Z,22.40
2018-04-08T17:09:01.643Z,22.40
2018-04-08T17:11:34.283Z,22.30
2018-04-08T17:14:05.922Z,22.30
2018-04-08T17:16:37.163Z,22.20
2018-04-08T17:19:09.444Z,22.20
2018-04-08T17:21:41.203Z,22.10
2018-04-08T17:24:15.623Z,22.10
2018-04-08T17:26:46.984Z,22.00
2018-04-08T17:29:19.244Z,21.90
2018-04-08T17:31:51.623Z,21.90
2018-04-08T17:34:23.983Z,21.80
2018-04-08T17:36:54.523Z,21.80
2018-04-08T17:39:28.024Z,21.70
2018-04-08T17:42:00.583Z,21.70
2018-04-08T17:44:31.422Z,21.70
2018-04-08T17:47:07.783Z,21.60
2018-04-08T17:49:38.663Z,21.50
2018-04-08T17:52:10.383Z,21.50
2018-04-08T17:54:42.683Z,21.40
2018-04-08T17:57:14.003Z,21.40
2018-04-08T17:59:46.163Z,21.40
2018-04-08T18:02:18.126Z,21.20
2018-04-08T18:04:50.084Z,21.20
2018-04-08T18:07:21.030Z,21.20
2018-04-08T18:09:51.723Z,21.10
2018-04-08T18:12:28.644Z,21.10
2018-04-08T18:15:00.706Z,20.90
2018-04-08T18:17:33.663Z,20.90
2018-04-08T18:20:07.606Z,21.00
2018-04-08T18:22:38.343Z,20.90
2018-04-08T18:25:10.283Z,20.90
2018-04-08T18:27:42.165Z,20.90
2018-04-08T18:30:16.265Z,20.80
2018-04-08T18:32:47.825Z,20.80
2018-04-08T18:35:17.664Z,20.80
2018-04-08T18:37:49.783Z,20.70
2018-04-08T18:40:22.164Z,20.60
2018-04-08T18:42:55.663Z,20.60
2018-04-08T18:45:27.052Z,20.60
2018-04-08T18:48:00.927Z,20.60
2018-04-08T18:50:36.864Z,20.60
2018-04-08T18:53:08.323Z,20.50
2018-04-08T18:55:39.703Z,20.50
2018-04-08T18:58:10.807Z,20.50
2018-04-08T19:00:41.643Z,20.50
2018-04-08T19:03:12.183Z,20.50
2018-04-08T19:05:45.465Z,20.50
2018-04-08T19:08:16.216Z,20.50
2018-04-08T19:10:49.104Z,20.50
2018-04-08T19:13:20.944Z,20.40
2018-04-08T19:15:53.423Z,20.30
2018-04-08T19:18:23.843Z,20.30
2018-04-08T19:20:54.743Z,20.30
2018-04-08T19:23:28.083Z,20.30
2018-04-08T19:25:59.023Z,20.30
2018-04-08T19:28:30.267Z,20.20
2018-04-08T19:31:04.384Z,20.20
2018-04-08T19:33:36.647Z,20.20
2018-04-08T19:36:08.403Z,20.20
2018-04-08T19:38:42.209Z,20.10
2018-04-08T19:41:15.404Z,20.10
2018-04-08T19:43:47.143Z,20.10
2018-04-08T19:46:20.544Z,20.00
2018-04-08T19:48:54.345Z,20.00
2018-04-08T19:51:25.804Z,19.90
2018-04-08T19:53:58.268Z,19.90
2018-04-08T19:56:29.107Z,19.90
2018-04-08T19:59:02.307Z,19.90
2018-04-08T20:01:40.007Z,19.90
2018-04-08T20:04:11.351Z,19.80
2018-04-08T20:06:42.786Z,19.80
2018-04-08T20:09:15.687Z,19.80
2018-04-08T20:11:47.328Z,19.80
2018-04-08T20:14:20.009Z,19.80
2018-04-08T20:16:51.731Z,19.70
2018-04-08T20:19:25.674Z,19.60
2018-04-08T20:21:57.687Z,19.60
2018-04-08T20:24:28.687Z,19.60
2018-04-08T20:27:00.946Z,19.50
2018-04-08T20:29:31.387Z,19.50
2018-04-08T20:32:02.628Z,19.50
2018-04-08T20:34:34.388Z,19.50
2018-04-08T20:37:06.648Z,19.50
2018-04-08T20:39:37.768Z,19.50
2018-04-08T20:42:08.708Z,19.40
2018-04-08T20:44:40.486Z,19.40
2018-04-08T20:47:12.646Z,19.30
2018-04-08T20:49:44.008Z,19.30
2018-04-08T20:52:19.687Z,19.20
2018-04-08T20:54:51.307Z,19.20
2018-04-08T20:57:24.588Z,19.20
2018-04-08T20:59:58.806Z,19.10
2018-04-08T21:02:30.047Z,19.00
2018-04-08T21:05:03.967Z,19.00
2018-04-08T21:07:40.127Z,19.00
2018-04-08T21:10:22.707Z,19.00
2018-04-08T21:12:54.207Z,19.00
2018-04-08T21:15:28.184Z,18.90
2018-04-08T21:17:59.865Z,18.90
2018-04-08T21:20:30.724Z,18.90
2018-04-08T21:23:01.625Z,18.90
2018-04-08T21:25:32.264Z,18.90
2018-04-08T21:28:03.897Z,18.80
2018-04-08T21:30:33.924Z,18.80
2018-04-08T21:33:07.726Z,18.80
2018-04-08T21:35:40.823Z,18.80
2018-04-08T21:38:14.104Z,18.80
2018-04-08T21:40:46.384Z,18.80
2018-04-08T21:43:20.384Z,18.70
2018-04-08T21:45:51.326Z,18.80
2018-04-08T21:48:27.704Z,18.80
2018-04-08T21:51:00.183Z,19.20
2018-04-08T21:53:31.104Z,18.80
2018-04-08T21:56:03.184Z,18.70
2018-04-08T21:58:33.904Z,18.80
2018-04-08T22:01:05.668Z,18.70
2018-04-08T22:03:38.343Z,18.70
2018-04-08T22:06:10.824Z,18.70
2018-04-08T22:08:44.103Z,18.70
2018-04-08T22:11:15.363Z,18.60
2018-04-08T22:13:48.144Z,18.60
2018-04-08T22:16:22.563Z,18.50
2018-04-08T22:18:55.343Z,18.50
2018-04-08T22:21:27.184Z,18.40
2018-04-08T22:23:58.545Z,18.40
2018-04-08T22:26:31.623Z,18.40
2018-04-08T22:29:02.565Z,18.40
2018-04-08T22:31:33.303Z,18.40
2018-04-08T22:34:06.706Z,18.30
2018-04-08T22:36:37.427Z,18.20
2018-04-08T22:39:09.383Z,18.20
2018-04-08T22:41:41.336Z,18.20
2018-04-08T22:44:12.770Z,18.30
2018-04-08T22:46:43.443Z,18.30
2018-04-08T22:49:16.723Z,18.30
2018-04-08T22:51:47.265Z,18.30
2018-04-08T22:54:18.404Z,18.30
2018-04-08T22:56:49.243Z,18.30
2018-04-08T22:59:19.724Z,18.40
2018-04-08T23:01:50.803Z,18.40
2018-04-08T23:04:21.845Z,18.40
2018-04-08T23:06:54.824Z,18.40
2018-04-08T23:09:25.043Z,18.40
2018-04-08T23:11:56.704Z,18.40
2018-04-08T23:14:28.564Z,18.30
2018-04-08T23:17:07.106Z,18.30
2018-04-08T23:19:38.223Z,18.20
2018-04-08T23:22:09.744Z,18.20
2018-04-08T23:24:42.244Z,18.20
2018-04-08T23:27:12.164Z,18.10
2018-04-08T23:29:46.684Z,18.10
2018-04-08T23:32:17.923Z,18.20
2018-04-08T23:34:49.384Z,18.20
2018-04-08T23:37:21.964Z,18.20
2018-04-08T23:39:55.264Z,18.20
2018-04-08T23:42:26.503Z,18.20
2018-04-08T23:44:59.364Z,18.20
2018-04-08T23:47:30.223Z,18.20
2018-04-08T23:50:00.447Z,18.20
2018-04-08T23:52:31.383Z,18.30
2018-04-08T23:55:03.243Z,18.20
2018-04-08T23:57:37.764Z,18.20
